Gateshead, United Kingdom
Current Conditions -  °F | °C
As of 4:50 AM on Saturday 22 Nov 2014 (Local Time) from EGNT Reporting Station
Light Rain Light Rain  
Wind Chill: 46°   Ceiling: 1500
Heat Index: 46°   Visibility: 4mi
Dew Point: 46°   Wind: 3mph
Humidity: 100%   Direction: NA
Pressure: 29.77"   Gusts: NA
Location:  54.96°N, 1.6°W
Report Text: EGNT 220450Z VRB03KT 6000 -RA BKN015 08/08 Q1008
Loading
Personal Weather Stations






























Interactive Weather Map New forecast layout! Learn more

10-Day Weather Forecast

Advertisements
Track Severe Weather on mobile